Time;durP1;ratioP1;P1;durP2;ratioP2;P2;SDS_P1;SDS_P2;PMS_P1;PMS_P2;Temp;Humidity;BMP_temperature;BMP_pressure;BME280_temperature;BME280_humidity;BME280_pressure;Samples;Min_cycle;Max_cycle;Signal;HPM_P1;HPM_P2
2022/05/10 00:00:28;;;;;;;8.37;7.47;;;;;;;;;;4980658;28;20193;-70
2022/05/10 00:02:55;;;;;;;9.43;7.57;;;;;;;;;;4988661;28;20224;-70
2022/05/10 00:05:28;;;;;;;7.97;7.10;;;;;;;;;;4955754;28;20746;-70
2022/05/10 00:07:54;;;;;;;12.43;7.10;;;;;;;;;;4978748;28;20205;-70
2022/05/10 00:10:20;;;;;;;10.93;7.37;;;;;;;;;;4981371;28;20661;-72
2022/05/10 00:12:46;;;;;;;8.30;7.50;;;;;;;;;;4990176;28;20182;-70
2022/05/10 00:15:12;;;;;;;10.73;7.40;;;;;;;;;;4982301;28;20633;-70
2022/05/10 00:17:38;;;;;;;11.93;8.20;;;;;;;;;;4988330;28;20217;-70
2022/05/10 00:20:05;;;;;;;9.40;7.20;;;;;;;;;;4981847;28;20787;-70
2022/05/10 00:22:31;;;;;;;8.43;7.60;;;;;;;;;;4989524;28;20646;-69
2022/05/10 00:24:57;;;;;;;16.63;7.60;;;;;;;;;;4991026;28;20189;-69
2022/05/10 00:27:23;;;;;;;10.40;7.10;;;;;;;;;;4986485;28;20252;-69
2022/05/10 00:29:49;;;;;;;9.33;7.17;;;;;;;;;;4988340;28;20191;-70
2022/05/10 00:32:15;;;;;;;8.17;7.37;;;;;;;;;;4984461;28;20193;-70
2022/05/10 00:34:41;;;;;;;10.30;8.03;;;;;;;;;;4981479;28;20192;-69
2022/05/10 00:37:07;;;;;;;9.70;7.10;;;;;;;;;;4985549;28;20185;-70
2022/05/10 00:39:33;;;;;;;11.00;6.93;;;;;;;;;;4985583;28;21325;-71
2022/05/10 00:42:11;;;;;;;8.50;6.93;;;;;;;;;;4984771;28;20558;-70
2022/05/10 00:44:57;;;;;;;8.17;7.20;;;;;;;;;;4988184;28;20239;-69
2022/05/10 00:47:27;;;;;;;8.77;7.07;;;;;;;;;;4982868;28;20237;-70
2022/05/10 00:50:02;;;;;;;8.10;6.90;;;;;;;;;;4982784;28;21034;-70
2022/05/10 00:52:42;;;;;;;8.97;7.10;;;;;;;;;;4975442;28;20237;-70
2022/05/10 00:55:15;;;;;;;8.90;7.73;;;;;;;;;;4988348;28;20194;-70
2022/05/10 00:57:42;;;;;;;10.03;7.20;;;;;;;;;;4994420;28;20189;-70
2022/05/10 01:00:08;;;;;;;7.97;6.77;;;;;;;;;;4988032;28;20232;-70
2022/05/10 01:02:47;;;;;;;10.03;7.30;;;;;;;;;;4987974;28;20563;-70
2022/05/10 01:05:30;;;;;;;8.30;7.37;;;;;;;;;;4987343;28;20547;-70
2022/05/10 01:08:02;;;;;;;7.70;7.10;;;;;;;;;;4997625;28;20193;-71
2022/05/10 01:10:31;;;;;;;8.20;6.67;;;;;;;;;;4989969;28;20190;-70
2022/05/10 01:12:58;;;;;;;10.07;7.27;;;;;;;;;;4990456;28;20659;-70
2022/05/10 01:15:25;;;;;;;7.83;7.13;;;;;;;;;;4987497;28;20224;-70
2022/05/10 01:17:52;;;;;;;11.20;7.00;;;;;;;;;;4978658;28;20205;-70
2022/05/10 01:20:19;;;;;;;7.80;7.10;;;;;;;;;;4975572;28;20224;-70
2022/05/10 01:22:57;;;;;;;9.47;7.77;;;;;;;;;;4974685;28;20200;-71
2022/05/10 01:25:31;;;;;;;9.23;7.60;;;;;;;;;;4987385;28;20198;-70
2022/05/10 01:28:10;;;;;;;8.90;6.70;;;;;;;;;;4991515;28;20205;-71
2022/05/10 01:30:36;;;;;;;7.53;6.67;;;;;;;;;;4987013;28;20200;-71
2022/05/10 01:35:48;;;;;;;9.47;7.47;;;;;;;;;;4994072;28;20328;-70
2022/05/10 01:38:26;;;;;;;7.37;6.60;;;;;;;;;;4991519;28;20190;-70
2022/05/10 01:40:53;;;;;;;7.90;7.10;;;;;;;;;;4990827;28;20240;-70
2022/05/10 01:43:28;;;;;;;7.73;6.97;;;;;;;;;;4989342;28;20604;-70
2022/05/10 01:45:55;;;;;;;9.10;7.30;;;;;;;;;;4981677;28;20285;-70
2022/05/10 01:48:21;;;;;;;8.50;7.70;;;;;;;;;;4996514;28;20198;-70
2022/05/10 01:50:53;;;;;;;8.20;7.40;;;;;;;;;;4990772;28;20289;-70
2022/05/10 01:53:32;;;;;;;17.20;7.63;;;;;;;;;;4985626;28;20657;-70
2022/05/10 01:56:04;;;;;;;8.30;7.50;;;;;;;;;;4983837;28;20189;-70
2022/05/10 01:58:31;;;;;;;8.97;8.00;;;;;;;;;;4975115;28;20196;-70
2022/05/10 02:01:01;;;;;;;9.60;7.80;;;;;;;;;;4984759;28;20197;-70
2022/05/10 02:03:44;;;;;;;11.43;8.27;;;;;;;;;;4994477;28;22305;-70
2022/05/10 02:06:21;;;;;;;10.63;7.93;;;;;;;;;;4987915;28;20228;-70
2022/05/10 02:08:48;;;;;;;8.40;7.50;;;;;;;;;;4986354;28;20193;-70
2022/05/10 02:11:15;;;;;;;10.87;8.33;;;;;;;;;;4988608;28;20743;-70
2022/05/10 02:14:02;;;;;;;8.03;7.20;;;;;;;;;;4993208;28;20277;-70
2022/05/10 02:17:01;;;;;;;9.13;7.33;;;;;;;;;;4987944;28;20205;-70
2022/05/10 02:19:36;;;;;;;8.10;7.30;;;;;;;;;;4964690;28;20216;-70
2022/05/10 02:22:12;;;;;;;8.30;7.43;;;;;;;;;;4981241;28;20215;-70
2022/05/10 02:24:39;;;;;;;8.77;7.23;;;;;;;;;;4987630;28;20525;-70
2022/05/10 02:27:07;;;;;;;8.10;7.17;;;;;;;;;;4981552;28;20224;-70
2022/05/10 02:29:38;;;;;;;10.10;6.90;;;;;;;;;;4990114;28;20256;-70
2022/05/10 02:35:10;;;;;;;9.50;7.47;;;;;;;;;;4974246;28;20203;-70
2022/05/10 02:37:35;;;;;;;8.70;7.50;;;;;;;;;;4975001;28;20225;-70
2022/05/10 02:40:02;;;;;;;9.27;7.47;;;;;;;;;;4988210;28;20279;-70
2022/05/10 02:42:28;;;;;;;9.30;8.00;;;;;;;;;;4984518;28;20193;-70
2022/05/10 02:44:57;;;;;;;8.17;7.00;;;;;;;;;;4988301;28;20197;-72
2022/05/10 02:47:42;;;;;;;7.87;7.13;;;;;;;;;;4985207;28;20224;-70
2022/05/10 02:50:23;;;;;;;7.77;7.07;;;;;;;;;;4965071;28;20182;-70
2022/05/10 02:52:49;;;;;;;8.97;8.13;;;;;;;;;;4981304;28;20707;-71
2022/05/10 02:55:16;;;;;;;10.30;7.37;;;;;;;;;;4986497;28;20222;-70
2022/05/10 02:57:42;;;;;;;10.93;7.80;;;;;;;;;;4967877;28;20190;-70
2022/05/10 03:00:08;;;;;;;8.40;7.23;;;;;;;;;;4988781;28;20535;-70
2022/05/10 03:02:36;;;;;;;8.77;7.50;;;;;;;;;;4984566;28;20633;-70
2022/05/10 03:05:04;;;;;;;8.40;7.60;;;;;;;;;;4959260;28;20241;-71
2022/05/10 03:07:30;;;;;;;8.53;7.63;;;;;;;;;;4976978;28;20213;-70
2022/05/10 03:09:56;;;;;;;7.70;6.93;;;;;;;;;;4993046;28;20276;-70
2022/05/10 03:12:22;;;;;;;8.60;7.80;;;;;;;;;;4989999;28;20268;-70
2022/05/10 03:14:48;;;;;;;8.50;7.47;;;;;;;;;;4985839;28;25880;-70
2022/05/10 03:17:14;;;;;;;8.20;7.37;;;;;;;;;;4984016;28;20204;-70
2022/05/10 03:19:40;;;;;;;8.07;7.37;;;;;;;;;;4984906;28;20182;-70
2022/05/10 03:22:07;;;;;;;9.70;8.00;;;;;;;;;;4987392;28;20192;-70
2022/05/10 03:24:33;;;;;;;8.00;7.20;;;;;;;;;;4990176;28;20190;-70
2022/05/10 03:26:59;;;;;;;8.63;7.43;;;;;;;;;;4994839;28;20210;-70
2022/05/10 03:29:25;;;;;;;7.97;7.27;;;;;;;;;;4970675;28;20609;-70
2022/05/10 03:31:51;;;;;;;8.77;7.80;;;;;;;;;;4986412;28;20251;-70
2022/05/10 03:37:02;;;;;;;8.83;7.93;;;;;;;;;;4985739;28;20193;-70
2022/05/10 03:39:28;;;;;;;8.97;7.23;;;;;;;;;;4986154;28;20189;-70
2022/05/10 03:41:53;;;;;;;9.47;7.30;;;;;;;;;;4990114;28;20217;-70
2022/05/10 03:44:19;;;;;;;8.73;7.67;;;;;;;;;;4987497;28;20189;-70
2022/05/10 03:46:45;;;;;;;8.23;7.43;;;;;;;;;;4983816;28;20221;-70
2022/05/10 03:49:11;;;;;;;8.63;7.27;;;;;;;;;;4985148;28;20212;-70
2022/05/10 03:51:37;;;;;;;8.53;7.53;;;;;;;;;;4988779;28;20321;-70
2022/05/10 03:54:03;;;;;;;8.97;7.17;;;;;;;;;;4984880;28;20189;-70
2022/05/10 03:56:29;;;;;;;9.47;7.50;;;;;;;;;;4985450;28;20536;-70
2022/05/10 03:58:55;;;;;;;7.90;7.10;;;;;;;;;;4982186;28;20209;-70
2022/05/10 04:01:21;;;;;;;7.80;7.00;;;;;;;;;;4980170;28;20255;-70
2022/05/10 04:03:48;;;;;;;8.87;8.07;;;;;;;;;;4982431;28;20288;-70
2022/05/10 04:06:14;;;;;;;8.27;6.97;;;;;;;;;;4983629;28;20217;-70
2022/05/10 04:08:40;;;;;;;8.97;7.83;;;;;;;;;;4988730;28;20777;-70
2022/05/10 04:11:07;;;;;;;7.87;7.20;;;;;;;;;;4986325;28;20268;-70
2022/05/10 04:13:33;;;;;;;8.10;7.30;;;;;;;;;;4987095;28;21180;-70
2022/05/10 04:15:59;;;;;;;8.33;7.30;;;;;;;;;;4973709;28;20199;-70
2022/05/10 04:18:25;;;;;;;7.93;7.10;;;;;;;;;;4981249;28;20694;-70
2022/05/10 04:20:51;;;;;;;8.73;6.83;;;;;;;;;;4978775;28;20276;-70
2022/05/10 04:23:17;;;;;;;9.10;7.30;;;;;;;;;;4988424;28;20201;-70
2022/05/10 04:25:43;;;;;;;9.13;7.43;;;;;;;;;;4992479;28;20216;-70
2022/05/10 04:28:09;;;;;;;7.67;6.97;;;;;;;;;;4978769;28;20201;-70
2022/05/10 04:30:35;;;;;;;9.33;7.23;;;;;;;;;;4977416;28;21194;-70
2022/05/10 04:33:01;;;;;;;8.77;7.27;;;;;;;;;;4975649;28;20236;-70
2022/05/10 04:35:27;;;;;;;8.43;7.37;;;;;;;;;;4977355;28;20293;-70
2022/05/10 04:37:53;;;;;;;8.67;7.87;;;;;;;;;;4977508;28;20288;-71
2022/05/10 04:43:05;;;;;;;8.17;7.37;;;;;;;;;;4976507;28;20236;-70
2022/05/10 04:45:31;;;;;;;7.60;6.90;;;;;;;;;;4966352;28;20228;-70
2022/05/10 04:47:57;;;;;;;8.47;7.63;;;;;;;;;;4979048;28;20299;-70
2022/05/10 04:50:23;;;;;;;8.17;7.37;;;;;;;;;;4978007;28;20182;-70
2022/05/10 04:52:49;;;;;;;7.93;7.07;;;;;;;;;;4962714;28;21158;-70
2022/05/10 04:55:15;;;;;;;8.10;7.30;;;;;;;;;;4959055;28;20260;-70
2022/05/10 04:57:41;;;;;;;7.83;7.13;;;;;;;;;;4968153;28;20200;-69
2022/05/10 05:00:08;;;;;;;7.83;7.03;;;;;;;;;;4968693;28;20178;-71
2022/05/10 05:02:34;;;;;;;10.37;8.23;;;;;;;;;;4964433;28;20268;-71
2022/05/10 05:05:00;;;;;;;8.87;8.00;;;;;;;;;;4966269;28;20245;-72
2022/05/10 05:07:26;;;;;;;10.20;8.20;;;;;;;;;;4976221;28;20784;-72
2022/05/10 05:09:52;;;;;;;10.27;8.50;;;;;;;;;;4974975;28;20198;-69
2022/05/10 05:12:19;;;;;;;10.23;9.23;;;;;;;;;;4975815;28;20201;-69
2022/05/10 05:14:45;;;;;;;11.40;9.47;;;;;;;;;;4975036;28;20393;-69
2022/05/10 05:17:11;;;;;;;18.27;10.43;;;;;;;;;;4974780;28;20201;-70
2022/05/10 05:19:37;;;;;;;11.20;10.00;;;;;;;;;;4991530;28;20194;-69
2022/05/10 05:22:03;;;;;;;10.67;9.57;;;;;;;;;;4981998;28;20203;-68
2022/05/10 05:24:29;;;;;;;10.70;9.80;;;;;;;;;;4989593;28;20204;-67
2022/05/10 05:26:55;;;;;;;11.23;10.13;;;;;;;;;;4984448;28;20214;-68
2022/05/10 05:29:21;;;;;;;10.70;9.70;;;;;;;;;;4986881;28;20694;-68
2022/05/10 05:31:48;;;;;;;11.53;10.23;;;;;;;;;;4996915;28;20205;-68
2022/05/10 05:34:13;;;;;;;11.03;9.70;;;;;;;;;;4993374;28;20198;-68
2022/05/10 05:36:39;;;;;;;13.73;9.80;;;;;;;;;;4995634;28;20195;-67
2022/05/10 05:39:05;;;;;;;10.80;9.80;;;;;;;;;;4992490;28;20203;-68
2022/05/10 05:41:31;;;;;;;11.20;10.00;;;;;;;;;;4988266;28;20357;-67
2022/05/10 05:43:57;;;;;;;11.27;10.10;;;;;;;;;;4984097;28;20731;-68
2022/05/10 05:46:23;;;;;;;11.33;10.23;;;;;;;;;;4988735;28;20746;-68
2022/05/10 05:48:49;;;;;;;11.93;10.50;;;;;;;;;;4992345;28;20221;-68
2022/05/10 05:51:15;;;;;;;10.37;9.33;;;;;;;;;;4994616;28;20210;-68
2022/05/10 05:53:41;;;;;;;15.83;9.70;;;;;;;;;;4992211;28;20298;-69
2022/05/10 05:56:11;;;;;;;13.07;10.13;;;;;;;;;;4988797;28;20228;-68
2022/05/10 05:58:37;;;;;;;10.70;9.57;;;;;;;;;;4989432;28;20188;-68
2022/05/10 06:01:10;;;;;;;13.37;10.03;;;;;;;;;;4994367;28;20185;-69
2022/05/10 06:03:36;;;;;;;13.87;10.13;;;;;;;;;;4989454;28;20237;-68
2022/05/10 06:06:02;;;;;;;17.03;10.43;;;;;;;;;;4985505;28;20758;-68
2022/05/10 06:08:28;;;;;;;11.57;10.37;;;;;;;;;;4990015;28;20213;-68
2022/05/10 06:10:55;;;;;;;12.13;9.03;;;;;;;;;;4993276;28;20244;-70
2022/05/10 06:13:22;;;;;;;10.40;9.10;;;;;;;;;;4991649;28;20285;-70
2022/05/10 06:15:49;;;;;;;12.80;9.07;;;;;;;;;;4996652;28;20647;-71
2022/05/10 06:18:15;;;;;;;15.37;8.63;;;;;;;;;;4993750;28;20185;-70
2022/05/10 06:20:41;;;;;;;11.63;9.00;;;;;;;;;;4996065;28;20259;-70
2022/05/10 06:23:07;;;;;;;9.63;8.63;;;;;;;;;;4994362;28;20209;-71
2022/05/10 06:25:35;;;;;;;11.43;9.27;;;;;;;;;;4997084;28;20240;-71
2022/05/10 06:28:01;;;;;;;10.17;9.03;;;;;;;;;;4995957;28;20218;-70
2022/05/10 06:30:26;;;;;;;10.07;8.50;;;;;;;;;;4994655;28;20186;-71
2022/05/10 06:32:53;;;;;;;12.67;9.20;;;;;;;;;;4986943;28;20198;-70
2022/05/10 06:35:19;;;;;;;10.57;8.63;;;;;;;;;;4990338;28;20237;-70
2022/05/10 06:40:29;;;;;;;9.77;8.13;;;;;;;;;;4993372;28;20259;-71
2022/05/10 06:42:58;;;;;;;10.30;8.67;;;;;;;;;;4994242;28;20194;-70
2022/05/10 06:45:24;;;;;;;13.83;8.43;;;;;;;;;;4991811;28;20209;-71
2022/05/10 06:47:50;;;;;;;9.17;8.27;;;;;;;;;;4993533;28;20202;-70
2022/05/10 06:50:20;;;;;;;9.20;8.40;;;;;;;;;;4991136;28;20644;-70
2022/05/10 06:52:46;;;;;;;9.00;7.77;;;;;;;;;;4995960;28;20561;-70
2022/05/10 06:55:12;;;;;;;8.73;7.63;;;;;;;;;;4992282;28;20178;-71
2022/05/10 06:57:38;;;;;;;10.57;8.20;;;;;;;;;;5000315;28;20273;-71
2022/05/10 07:00:08;;;;;;;9.10;8.20;;;;;;;;;;4996002;28;20189;-71
2022/05/10 07:02:34;;;;;;;7.80;7.10;;;;;;;;;;4993915;28;20186;-71
2022/05/10 07:05:00;;;;;;;9.77;7.37;;;;;;;;;;4995828;28;20238;-71
2022/05/10 07:07:27;;;;;;;10.27;7.43;;;;;;;;;;4995913;28;20873;-71
2022/05/10 07:09:54;;;;;;;9.47;7.47;;;;;;;;;;4994455;28;20437;-72
2022/05/10 07:12:20;;;;;;;9.57;7.53;;;;;;;;;;4993011;28;20194;-71
2022/05/10 07:14:46;;;;;;;7.90;7.10;;;;;;;;;;4995901;28;20202;-71
2022/05/10 07:17:12;;;;;;;9.53;6.73;;;;;;;;;;5001036;28;20182;-71
2022/05/10 07:19:38;;;;;;;9.40;6.93;;;;;;;;;;4996757;28;20194;-71
2022/05/10 07:22:04;;;;;;;12.25;7.45;;;;;;;;;;4990877;28;20740;-71
2022/05/10 07:24:30;;;;;;;9.48;7.03;;;;;;;;;;4992241;28;20297;-71
2022/05/10 07:26:56;;;;;;;7.72;6.60;;;;;;;;;;4996519;28;20210;-71
2022/05/10 07:29:22;;;;;;;8.07;5.72;;;;;;;;;;4994929;28;20651;-72
2022/05/10 07:31:48;;;;;;;7.60;5.97;;;;;;;;;;4993516;28;20222;-71
2022/05/10 07:34:14;;;;;;;8.70;6.00;;;;;;;;;;4998007;28;20610;-71
2022/05/10 07:36:40;;;;;;;10.10;6.22;;;;;;;;;;4996362;28;20205;-70
2022/05/10 07:39:10;;;;;;;10.82;6.13;;;;;;;;;;4993612;28;20583;-71
2022/05/10 07:41:36;;;;;;;8.07;5.35;;;;;;;;;;4995457;28;20645;-71
2022/05/10 07:44:02;;;;;;;8.20;6.05;;;;;;;;;;4997794;28;20201;-71
2022/05/10 07:46:28;;;;;;;6.85;5.55;;;;;;;;;;4991213;28;20604;-71
2022/05/10 07:48:54;;;;;;;6.35;5.65;;;;;;;;;;4991976;28;20202;-71
2022/05/10 07:51:21;;;;;;;7.72;5.75;;;;;;;;;;4994993;28;20182;-71
2022/05/10 07:53:47;;;;;;;6.13;5.25;;;;;;;;;;4998552;28;20178;-70
2022/05/10 07:56:12;;;;;;;6.35;5.03;;;;;;;;;;4997584;28;20556;-70
2022/05/10 07:58:38;;;;;;;6.40;5.25;;;;;;;;;;4989272;28;20564;-71
2022/05/10 08:01:04;;;;;;;9.25;5.18;;;;;;;;;;4987292;28;20190;-71
2022/05/10 08:03:30;;;;;;;6.03;4.55;;;;;;;;;;4985781;28;20237;-70
2022/05/10 08:05:56;;;;;;;5.18;4.68;;;;;;;;;;4981044;28;20194;-71
2022/05/10 08:08:23;;;;;;;11.18;4.90;;;;;;;;;;4988587;28;20205;-71
2022/05/10 08:10:49;;;;;;;7.07;4.55;;;;;;;;;;4984946;28;20182;-71
2022/05/10 08:13:19;;;;;;;6.35;4.85;;;;;;;;;;4980189;28;20235;-70
2022/05/10 08:15:45;;;;;;;5.93;4.43;;;;;;;;;;4993645;28;20213;-70
2022/05/10 08:18:11;;;;;;;5.43;4.35;;;;;;;;;;4992731;28;20716;-70
2022/05/10 08:20:37;;;;;;;19.15;5.63;;;;;;;;;;4994434;28;20178;-71
2022/05/10 08:23:04;;;;;;;6.78;3.95;;;;;;;;;;4989833;28;20562;-69
2022/05/10 08:25:30;;;;;;;5.32;4.78;;;;;;;;;;4992799;28;20185;-69
2022/05/10 08:27:56;;;;;;;5.25;4.45;;;;;;;;;;4998045;28;20215;-70
2022/05/10 08:30:22;;;;;;;7.07;4.78;;;;;;;;;;4992730;28;20193;-70
2022/05/10 08:32:48;;;;;;;6.15;4.40;;;;;;;;;;4975235;28;20536;-70
2022/05/10 08:35:13;;;;;;;6.80;4.35;;;;;;;;;;4990412;28;20186;-70
2022/05/10 08:37:39;;;;;;;8.57;4.82;;;;;;;;;;4994875;28;20186;-70
2022/05/10 08:40:06;;;;;;;6.03;3.85;;;;;;;;;;4995087;28;20186;-70
2022/05/10 08:42:33;;;;;;;4.70;4.20;;;;;;;;;;4990772;28;20248;-70
2022/05/10 08:45:04;;;;;;;6.70;4.50;;;;;;;;;;4996517;28;20185;-70
2022/05/10 08:47:30;;;;;;;5.05;4.57;;;;;;;;;;4995812;28;20221;-71
2022/05/10 08:49:59;;;;;;;8.20;4.80;;;;;;;;;;4996840;28;20182;-70
2022/05/10 08:52:28;;;;;;;7.78;4.60;;;;;;;;;;4992163;28;20179;-70
2022/05/10 08:54:54;;;;;;;5.05;4.13;;;;;;;;;;4998261;28;20183;-70
2022/05/10 08:57:38;;;;;;;5.60;4.45;;;;;;;;;;4994465;28;20178;-70
2022/05/10 09:00:04;;;;;;;4.38;3.97;;;;;;;;;;4992795;28;20221;-71
2022/05/10 09:02:40;;;;;;;5.32;4.00;;;;;;;;;;4992231;28;20217;-69
2022/05/10 09:05:06;;;;;;;4.95;4.20;;;;;;;;;;4982668;28;20229;-70
2022/05/10 09:07:35;;;;;;;6.47;3.72;;;;;;;;;;4996241;28;20210;-69
2022/05/10 09:10:02;;;;;;;4.07;3.78;;;;;;;;;;4997746;28;20213;-70
2022/05/10 09:12:28;;;;;;;6.35;4.00;;;;;;;;;;4999558;28;20178;-70
2022/05/10 09:14:55;;;;;;;5.63;4.50;;;;;;;;;;4992554;28;20706;-70
2022/05/10 09:17:22;;;;;;;4.65;4.00;;;;;;;;;;5004081;28;20181;-71
2022/05/10 09:19:48;;;;;;;4.57;3.97;;;;;;;;;;4997437;28;20196;-70
2022/05/10 09:22:34;;;;;;;5.75;4.03;;;;;;;;;;4991170;28;20194;-70
2022/05/10 09:25:00;;;;;;;6.10;3.85;;;;;;;;;;4998454;28;20178;-70
2022/05/10 09:27:32;;;;;;;7.60;4.15;;;;;;;;;;4998042;28;20887;-70
2022/05/10 09:29:58;;;;;;;6.82;3.90;;;;;;;;;;5001520;28;20181;-70
2022/05/10 09:35:11;;;;;;;6.47;3.65;;;;;;;;;;4997869;28;20261;-70
2022/05/10 09:37:38;;;;;;;4.82;3.75;;;;;;;;;;5003736;28;20177;-71
2022/05/10 09:40:06;;;;;;;6.10;3.83;;;;;;;;;;5003748;28;20248;-71
2022/05/10 09:42:33;;;;;;;3.78;3.45;;;;;;;;;;4997976;28;20550;-71
2022/05/10 09:45:18;;;;;;;7.50;3.63;;;;;;;;;;4995658;28;20196;-71
2022/05/10 09:48:10;;;;;;;4.25;3.80;;;;;;;;;;4993505;28;21223;-70
2022/05/10 09:50:46;;;;;;;5.90;3.85;;;;;;;;;;5003394;28;20185;-71
2022/05/10 09:53:12;;;;;;;6.03;3.42;;;;;;;;;;4995972;28;20181;-69
2022/05/10 09:55:38;;;;;;;4.60;3.50;;;;;;;;;;4998453;28;20205;-70
2022/05/10 09:58:21;;;;;;;5.63;3.65;;;;;;;;;;4997563;28;20267;-70
2022/05/10 10:00:55;;;;;;;5.25;3.50;;;;;;;;;;4994870;28;20667;-70
2022/05/10 10:03:27;;;;;;;5.70;3.70;;;;;;;;;;4996084;28;20229;-70
2022/05/10 10:05:55;;;;;;;3.92;3.50;;;;;;;;;;4998873;28;20243;-70
2022/05/10 10:08:47;;;;;;;4.70;3.60;;;;;;;;;;4999250;28;20203;-70
2022/05/10 10:11:33;;;;;;;3.83;3.00;;;;;;;;;;4993352;28;20288;-70
2022/05/10 10:13:59;;;;;;;4.85;3.30;;;;;;;;;;4996444;28;20206;-71
2022/05/10 10:16:26;;;;;;;3.83;2.90;;;;;;;;;;4987629;28;20256;-71
2022/05/10 10:18:53;;;;;;;3.50;3.08;;;;;;;;;;4994640;28;20186;-70
2022/05/10 10:21:25;;;;;;;3.08;2.83;;;;;;;;;;5002520;28;20232;-71
2022/05/10 10:23:53;;;;;;;3.45;3.08;;;;;;;;;;4996987;28;20226;-70
2022/05/10 10:26:24;;;;;;;4.00;2.80;;;;;;;;;;4997763;28;20214;-70
2022/05/10 10:28:52;;;;;;;2.70;2.50;;;;;;;;;;4998340;28;20245;-71
2022/05/10 10:31:19;;;;;;;3.20;2.92;;;;;;;;;;4999374;28;20200;-71
2022/05/10 10:33:47;;;;;;;5.75;2.60;;;;;;;;;;4997294;28;20197;-71
2022/05/10 10:36:14;;;;;;;4.25;2.80;;;;;;;;;;4998076;28;20659;-71
2022/05/10 10:38:42;;;;;;;3.90;2.40;;;;;;;;;;4995710;28;20182;-72
2022/05/10 10:41:09;;;;;;;2.97;2.75;;;;;;;;;;5000848;28;20205;-71
2022/05/10 10:43:44;;;;;;;4.07;2.80;;;;;;;;;;4992637;28;20189;-70
2022/05/10 10:46:30;;;;;;;3.08;2.70;;;;;;;;;;4994864;28;20217;-70
2022/05/10 10:48:57;;;;;;;3.28;2.83;;;;;;;;;;4984749;28;20276;-71
2022/05/10 10:51:26;;;;;;;2.72;2.53;;;;;;;;;;4993314;28;20205;-71
2022/05/10 10:53:52;;;;;;;5.57;2.63;;;;;;;;;;4996980;28;20562;-70
2022/05/10 10:56:27;;;;;;;4.72;2.95;;;;;;;;;;4978041;28;20232;-72
2022/05/10 10:58:53;;;;;;;7.05;3.03;;;;;;;;;;4998045;28;20225;-71
2022/05/10 11:01:37;;;;;;;3.25;2.53;;;;;;;;;;4995884;28;21470;-71
2022/05/10 11:04:22;;;;;;;5.72;2.78;;;;;;;;;;4981607;28;20600;-70
2022/05/10 11:06:54;;;;;;;2.90;2.50;;;;;;;;;;4989749;28;20212;-71
2022/05/10 11:09:38;;;;;;;2.60;2.40;;;;;;;;;;4995606;28;20178;-72
2022/05/10 11:12:04;;;;;;;2.67;2.47;;;;;;;;;;4997420;28;20188;-71
2022/05/10 11:14:41;;;;;;;3.85;2.70;;;;;;;;;;4993287;28;20987;-71
2022/05/10 11:17:13;;;;;;;7.50;2.60;;;;;;;;;;4998607;28;20178;-70
2022/05/10 11:19:54;;;;;;;3.35;2.53;;;;;;;;;;4997229;28;20202;-70
2022/05/10 11:22:26;;;;;;;3.67;2.90;;;;;;;;;;4995077;28;20179;-70
2022/05/10 11:24:55;;;;;;;3.35;2.58;;;;;;;;;;4999389;28;20707;-71
2022/05/10 11:27:36;;;;;;;5.20;2.83;;;;;;;;;;4994239;28;20216;-71
2022/05/10 11:30:09;;;;;;;3.78;2.50;;;;;;;;;;4997714;28;20196;-71
2022/05/10 11:32:45;;;;;;;5.10;2.80;;;;;;;;;;4996015;28;20208;-71
2022/05/10 11:35:27;;;;;;;4.72;2.60;;;;;;;;;;4992442;28;20217;-72
2022/05/10 11:38:08;;;;;;;2.85;2.60;;;;;;;;;;4979127;28;21140;-76
2022/05/10 11:40:37;;;;;;;7.32;3.15;;;;;;;;;;4984448;28;20225;-72
2022/05/10 11:43:25;;;;;;;3.33;3.05;;;;;;;;;;4983143;28;20582;-72
2022/05/10 11:46:04;;;;;;;7.32;3.42;;;;;;;;;;4984565;28;20227;-71
2022/05/10 11:48:30;;;;;;;5.13;3.55;;;;;;;;;;4988659;28;20201;-71
2022/05/10 11:54:19;;;;;;;3.35;3.05;;;;;;;;;;4989754;28;20243;-72
2022/05/10 11:56:45;;;;;;;4.13;3.42;;;;;;;;;;4981958;28;20204;-72
2022/05/10 11:59:15;;;;;;;5.32;3.22;;;;;;;;;;4991512;28;20206;-72
2022/05/10 12:01:44;;;;;;;4.60;3.55;;;;;;;;;;4993102;28;20255;-73
2022/05/10 12:04:29;;;;;;;5.25;3.45;;;;;;;;;;4997073;28;21517;-73
2022/05/10 12:06:55;;;;;;;7.18;3.58;;;;;;;;;;4983210;28;20268;-72
2022/05/10 12:09:54;;;;;;;5.90;3.35;;;;;;;;;;4985670;28;20264;-72
2022/05/10 12:12:31;;;;;;;8.50;3.65;;;;;;;;;;4959359;28;20281;-72
2022/05/10 12:23:19;;;;;;;4.65;3.45;;;;;;;;;;4986122;28;20686;-71
2022/05/10 12:25:55;;;;;;;4.20;3.78;;;;;;;;;;4981391;28;20190;-71
2022/05/10 12:28:36;;;;;;;6.97;3.55;;;;;;;;;;4989382;28;20539;-72
2022/05/10 12:31:02;;;;;;;6.45;3.20;;;;;;;;;;4991609;28;20248;-71
2022/05/10 12:33:35;;;;;;;6.10;3.70;;;;;;;;;;4986635;28;20189;-72
2022/05/10 12:36:02;;;;;;;8.93;4.00;;;;;;;;;;4990755;28;20219;-72
2022/05/10 12:38:32;;;;;;;7.00;3.58;;;;;;;;;;4990329;28;20213;-72
2022/05/10 12:41:09;;;;;;;7.68;3.60;;;;;;;;;;4988360;28;20297;-71
2022/05/10 12:43:58;;;;;;;6.47;3.72;;;;;;;;;;4979437;28;20193;-73
2022/05/10 12:46:26;;;;;;;4.50;3.58;;;;;;;;;;4988905;28;20217;-72
2022/05/10 12:48:52;;;;;;;3.50;3.20;;;;;;;;;;4996204;28;20231;-72
2022/05/10 12:51:38;;;;;;;10.05;3.95;;;;;;;;;;4995028;28;20174;-72
2022/05/10 12:54:07;;;;;;;6.72;3.53;;;;;;;;;;4995859;28;21168;-71
2022/05/10 12:56:42;;;;;;;8.55;3.35;;;;;;;;;;4992717;28;20193;-72
2022/05/10 12:59:37;;;;;;;4.53;3.60;;;;;;;;;;4988833;28;20249;-73
2022/05/10 13:02:04;;;;;;;6.03;3.42;;;;;;;;;;4965560;28;20205;-73
2022/05/10 13:04:30;;;;;;;5.10;3.15;;;;;;;;;;4992067;28;20768;-72
2022/05/10 13:07:02;;;;;;;4.70;3.20;;;;;;;;;;4992434;28;20214;-71
2022/05/10 13:09:35;;;;;;;8.18;3.40;;;;;;;;;;4984538;28;20190;-71
2022/05/10 13:12:01;;;;;;;8.20;3.17;;;;;;;;;;4990027;28;20188;-71
2022/05/10 13:14:27;;;;;;;6.32;3.40;;;;;;;;;;4989250;28;20182;-71
2022/05/10 13:16:53;;;;;;;4.50;3.25;;;;;;;;;;4990458;28;20713;-70
2022/05/10 13:19:20;;;;;;;5.70;3.20;;;;;;;;;;4985803;28;20186;-71
2022/05/10 13:21:46;;;;;;;3.50;3.15;;;;;;;;;;4969801;28;20185;-71
2022/05/10 13:24:13;;;;;;;4.35;3.38;;;;;;;;;;4985783;28;20597;-71
2022/05/10 13:26:58;;;;;;;4.72;3.55;;;;;;;;;;4994507;28;20202;-70
2022/05/10 13:29:36;;;;;;;5.63;3.50;;;;;;;;;;4992925;28;20209;-71
2022/05/10 13:32:02;;;;;;;4.45;3.17;;;;;;;;;;4991098;28;20182;-71
2022/05/10 13:34:28;;;;;;;5.95;3.42;;;;;;;;;;4995026;28;20308;-71
2022/05/10 13:36:54;;;;;;;4.40;3.50;;;;;;;;;;4992284;28;20617;-70
2022/05/10 13:39:30;;;;;;;3.90;3.50;;;;;;;;;;4996336;28;20293;-71
2022/05/10 13:41:57;;;;;;;6.78;3.50;;;;;;;;;;4992195;28;20933;-71
2022/05/10 13:44:23;;;;;;;4.05;3.75;;;;;;;;;;4992660;28;20355;-71
2022/05/10 13:46:50;;;;;;;6.68;4.25;;;;;;;;;;4995432;28;20633;-70
2022/05/10 13:49:18;;;;;;;4.90;3.67;;;;;;;;;;4999695;28;20186;-72
2022/05/10 13:51:49;;;;;;;7.03;3.80;;;;;;;;;;4994919;28;20271;-71
2022/05/10 13:54:22;;;;;;;4.60;3.50;;;;;;;;;;4994957;28;20190;-71
2022/05/10 13:56:48;;;;;;;4.97;3.30;;;;;;;;;;4992834;28;20252;-72
2022/05/10 13:59:15;;;;;;;7.32;3.67;;;;;;;;;;4990738;28;20647;-71
2022/05/10 14:01:46;;;;;;;5.63;3.83;;;;;;;;;;4994190;28;20584;-74
2022/05/10 14:04:13;;;;;;;4.07;3.65;;;;;;;;;;4989470;28;20237;-74
2022/05/10 14:06:40;;;;;;;5.15;3.63;;;;;;;;;;4999648;28;20213;-74
2022/05/10 14:09:07;;;;;;;5.78;3.25;;;;;;;;;;4991347;28;20702;-74
2022/05/10 14:11:35;;;;;;;6.35;3.38;;;;;;;;;;4993792;28;20182;-74
2022/05/10 14:14:01;;;;;;;5.72;3.40;;;;;;;;;;4991275;28;20197;-74
2022/05/10 14:16:30;;;;;;;6.25;3.33;;;;;;;;;;4987113;28;20217;-74
2022/05/10 14:18:58;;;;;;;5.18;3.20;;;;;;;;;;4991706;28;20185;-74
2022/05/10 14:21:24;;;;;;;4.82;3.47;;;;;;;;;;4984736;28;20178;-74
2022/05/10 14:23:51;;;;;;;19.42;4.03;;;;;;;;;;4974631;28;20932;-72
2022/05/10 14:26:30;;;;;;;7.72;3.65;;;;;;;;;;4986570;28;20193;-72
2022/05/10 14:28:57;;;;;;;8.18;3.13;;;;;;;;;;4971132;28;20193;-72
2022/05/10 14:31:31;;;;;;;2.90;2.58;;;;;;;;;;4985150;28;20597;-71
2022/05/10 14:33:57;;;;;;;6.72;3.10;;;;;;;;;;4992622;28;20198;-71
2022/05/10 14:36:27;;;;;;;3.92;3.00;;;;;;;;;;4989408;28;20185;-71
2022/05/10 14:38:53;;;;;;;4.43;2.95;;;;;;;;;;4990438;28;20560;-71
2022/05/10 14:41:38;;;;;;;8.30;3.08;;;;;;;;;;4996180;28;20193;-71
2022/05/10 14:44:11;;;;;;;6.95;3.10;;;;;;;;;;4993385;28;20190;-72
2022/05/10 14:46:42;;;;;;;5.80;2.92;;;;;;;;;;4991866;28;20220;-71
2022/05/10 14:49:09;;;;;;;3.45;3.00;;;;;;;;;;4994723;28;20179;-71
2022/05/10 14:51:36;;;;;;;7.57;2.80;;;;;;;;;;4992623;28;20206;-71
2022/05/10 14:54:03;;;;;;;3.33;3.00;;;;;;;;;;4989184;28;20218;-71
2022/05/10 14:56:37;;;;;;;4.65;2.92;;;;;;;;;;4997829;28;20189;-71
2022/05/10 14:59:20;;;;;;;4.95;3.10;;;;;;;;;;4992699;28;20745;-72
2022/05/10 15:01:47;;;;;;;4.90;3.50;;;;;;;;;;4992708;28;20731;-71
2022/05/10 15:04:14;;;;;;;8.18;3.47;;;;;;;;;;4968765;28;20810;-72
2022/05/10 15:06:41;;;;;;;4.05;3.13;;;;;;;;;;4974103;28;20221;-71
2022/05/10 15:09:07;;;;;;;5.60;3.30;;;;;;;;;;4991696;28;20232;-71
2022/05/10 15:11:33;;;;;;;4.53;3.13;;;;;;;;;;4992876;28;20181;-71
2022/05/10 15:13:59;;;;;;;6.38;3.75;;;;;;;;;;4990406;28;20194;-71
2022/05/10 15:16:25;;;;;;;5.00;3.40;;;;;;;;;;4974547;28;20300;-72
2022/05/10 15:19:00;;;;;;;7.22;3.78;;;;;;;;;;4986762;28;20734;-69
2022/05/10 15:21:28;;;;;;;4.20;3.80;;;;;;;;;;4989064;28;20188;-70